sensor_id;sensor_type;location;lat;lon;timestamp;P1;durP1;ratioP1;P2;durP2;ratioP2
66619;SDS011;53484;51.356;6.732;2022-12-18T00:01:47;15.65;;;6.55;;
66619;SDS011;53484;51.356;6.732;2022-12-18T00:04:15;16.08;;;6.57;;
66619;SDS011;53484;51.356;6.732;2022-12-18T00:06:43;15.20;;;5.88;;
66619;SDS011;53484;51.356;6.732;2022-12-18T00:09:10;15.77;;;6.57;;
66619;SDS011;53484;51.356;6.732;2022-12-18T00:11:36;15.10;;;6.70;;
66619;SDS011;53484;51.356;6.732;2022-12-18T00:14:02;12.98;;;5.82;;
66619;SDS011;53484;51.356;6.732;2022-12-18T00:16:29;16.50;;;6.95;;
66619;SDS011;53484;51.356;6.732;2022-12-18T00:18:57;15.83;;;6.10;;
66619;SDS011;53484;51.356;6.732;2022-12-18T00:21:24;15.68;;;6.70;;
66619;SDS011;53484;51.356;6.732;2022-12-18T00:23:51;14.98;;;6.53;;
66619;SDS011;53484;51.356;6.732;2022-12-18T00:26:20;17.33;;;7.13;;
66619;SDS011;53484;51.356;6.732;2022-12-18T00:28:47;17.05;;;6.93;;
66619;SDS011;53484;51.356;6.732;2022-12-18T00:31:14;15.13;;;7.07;;
66619;SDS011;53484;51.356;6.732;2022-12-18T00:33:41;16.40;;;6.53;;
66619;SDS011;53484;51.356;6.732;2022-12-18T00:36:09;17.53;;;7.27;;
66619;SDS011;53484;51.356;6.732;2022-12-18T00:38:35;17.25;;;6.78;;
66619;SDS011;53484;51.356;6.732;2022-12-18T00:41:03;13.80;;;5.95;;
66619;SDS011;53484;51.356;6.732;2022-12-18T00:43:31;15.30;;;6.73;;
66619;SDS011;53484;51.356;6.732;2022-12-18T00:45:56;17.70;;;6.97;;
66619;SDS011;53484;51.356;6.732;2022-12-18T00:48:23;20.55;;;7.38;;
66619;SDS011;53484;51.356;6.732;2022-12-18T00:50:49;17.02;;;7.30;;
66619;SDS011;53484;51.356;6.732;2022-12-18T00:53:16;13.45;;;5.97;;
66619;SDS011;53484;51.356;6.732;2022-12-18T00:55:42;12.80;;;6.10;;
66619;SDS011;53484;51.356;6.732;2022-12-18T00:58:10;17.27;;;6.70;;
66619;SDS011;53484;51.356;6.732;2022-12-18T01:00:37;18.55;;;7.60;;
66619;SDS011;53484;51.356;6.732;2022-12-18T01:03:03;15.90;;;6.17;;
66619;SDS011;53484;51.356;6.732;2022-12-18T01:05:33;14.68;;;6.30;;
66619;SDS011;53484;51.356;6.732;2022-12-18T01:08:02;17.85;;;6.65;;
66619;SDS011;53484;51.356;6.732;2022-12-18T01:10:29;13.02;;;6.18;;
66619;SDS011;53484;51.356;6.732;2022-12-18T01:12:55;16.40;;;6.38;;
66619;SDS011;53484;51.356;6.732;2022-12-18T01:15:23;15.30;;;6.45;;
66619;SDS011;53484;51.356;6.732;2022-12-18T01:17:51;15.35;;;6.78;;
66619;SDS011;53484;51.356;6.732;2022-12-18T01:20:17;15.53;;;6.20;;
66619;SDS011;53484;51.356;6.732;2022-12-18T01:22:43;17.85;;;6.88;;
66619;SDS011;53484;51.356;6.732;2022-12-18T01:25:10;15.00;;;5.82;;
66619;SDS011;53484;51.356;6.732;2022-12-18T01:27:36;19.33;;;6.30;;
66619;SDS011;53484;51.356;6.732;2022-12-18T01:30:03;14.98;;;6.53;;
66619;SDS011;53484;51.356;6.732;2022-12-18T01:32:31;14.18;;;6.45;;
66619;SDS011;53484;51.356;6.732;2022-12-18T01:34:57;14.15;;;6.57;;
66619;SDS011;53484;51.356;6.732;2022-12-18T01:37:24;15.60;;;6.13;;
66619;SDS011;53484;51.356;6.732;2022-12-18T01:39:50;14.73;;;5.93;;
66619;SDS011;53484;51.356;6.732;2022-12-18T01:42:18;14.32;;;6.45;;
66619;SDS011;53484;51.356;6.732;2022-12-18T01:44:53;15.77;;;6.77;;
66619;SDS011;53484;51.356;6.732;2022-12-18T01:47:22;15.80;;;6.22;;
66619;SDS011;53484;51.356;6.732;2022-12-18T01:49:51;16.27;;;6.75;;
66619;SDS011;53484;51.356;6.732;2022-12-18T01:52:17;15.40;;;6.30;;
66619;SDS011;53484;51.356;6.732;2022-12-18T01:54:45;13.60;;;5.80;;
66619;SDS011;53484;51.356;6.732;2022-12-18T01:57:12;16.15;;;7.07;;
66619;SDS011;53484;51.356;6.732;2022-12-18T01:59:38;14.52;;;6.13;;
66619;SDS011;53484;51.356;6.732;2022-12-18T02:02:06;14.75;;;6.18;;
66619;SDS011;53484;51.356;6.732;2022-12-18T02:04:32;12.77;;;6.30;;
66619;SDS011;53484;51.356;6.732;2022-12-18T02:07:01;19.05;;;6.88;;
66619;SDS011;53484;51.356;6.732;2022-12-18T02:09:31;14.97;;;6.17;;
66619;SDS011;53484;51.356;6.732;2022-12-18T02:12:01;13.60;;;5.82;;
66619;SDS011;53484;51.356;6.732;2022-12-18T02:14:33;15.85;;;6.15;;
66619;SDS011;53484;51.356;6.732;2022-12-18T02:17:03;13.60;;;6.20;;
66619;SDS011;53484;51.356;6.732;2022-12-18T02:19:41;19.23;;;7.32;;
66619;SDS011;53484;51.356;6.732;2022-12-18T02:22:15;16.35;;;6.70;;
66619;SDS011;53484;51.356;6.732;2022-12-18T02:24:44;14.30;;;6.93;;
66619;SDS011;53484;51.356;6.732;2022-12-18T02:27:12;17.98;;;6.75;;
66619;SDS011;53484;51.356;6.732;2022-12-18T02:29:40;13.75;;;6.13;;
66619;SDS011;53484;51.356;6.732;2022-12-18T02:32:08;13.55;;;6.00;;
66619;SDS011;53484;51.356;6.732;2022-12-18T02:34:37;16.17;;;6.60;;
66619;SDS011;53484;51.356;6.732;2022-12-18T02:37:04;13.93;;;6.32;;
66619;SDS011;53484;51.356;6.732;2022-12-18T02:39:32;18.52;;;7.10;;
66619;SDS011;53484;51.356;6.732;2022-12-18T02:41:59;16.30;;;6.83;;
66619;SDS011;53484;51.356;6.732;2022-12-18T02:44:28;15.00;;;6.80;;
66619;SDS011;53484;51.356;6.732;2022-12-18T02:46:55;13.73;;;6.40;;
66619;SDS011;53484;51.356;6.732;2022-12-18T02:49:24;17.13;;;6.50;;
66619;SDS011;53484;51.356;6.732;2022-12-18T02:51:52;14.35;;;6.45;;
66619;SDS011;53484;51.356;6.732;2022-12-18T02:57:09;17.17;;;6.80;;
66619;SDS011;53484;51.356;6.732;2022-12-18T02:59:41;16.17;;;7.00;;
66619;SDS011;53484;51.356;6.732;2022-12-18T03:02:10;16.13;;;6.50;;
66619;SDS011;53484;51.356;6.732;2022-12-18T03:04:42;15.82;;;5.68;;
66619;SDS011;53484;51.356;6.732;2022-12-18T03:07:10;14.07;;;6.33;;
66619;SDS011;53484;51.356;6.732;2022-12-18T03:09:40;15.25;;;6.60;;
66619;SDS011;53484;51.356;6.732;2022-12-18T03:12:10;16.00;;;6.22;;
66619;SDS011;53484;51.356;6.732;2022-12-18T03:14:52;14.57;;;6.18;;
66619;SDS011;53484;51.356;6.732;2022-12-18T03:17:21;13.25;;;5.90;;
66619;SDS011;53484;51.356;6.732;2022-12-18T03:19:48;13.55;;;5.75;;
66619;SDS011;53484;51.356;6.732;2022-12-18T03:22:15;13.35;;;6.05;;
66619;SDS011;53484;51.356;6.732;2022-12-18T03:24:42;16.20;;;6.40;;
66619;SDS011;53484;51.356;6.732;2022-12-18T03:27:09;16.42;;;6.32;;
66619;SDS011;53484;51.356;6.732;2022-12-18T03:29:38;15.63;;;5.97;;
66619;SDS011;53484;51.356;6.732;2022-12-18T03:32:07;15.23;;;6.80;;
66619;SDS011;53484;51.356;6.732;2022-12-18T03:34:36;15.82;;;6.10;;
66619;SDS011;53484;51.356;6.732;2022-12-18T03:37:03;12.77;;;6.07;;
66619;SDS011;53484;51.356;6.732;2022-12-18T03:39:30;13.80;;;6.20;;
66619;SDS011;53484;51.356;6.732;2022-12-18T03:41:57;14.68;;;6.32;;
66619;SDS011;53484;51.356;6.732;2022-12-18T03:44:26;13.10;;;5.90;;
66619;SDS011;53484;51.356;6.732;2022-12-18T03:46:56;14.50;;;6.28;;
66619;SDS011;53484;51.356;6.732;2022-12-18T03:49:27;15.07;;;6.60;;
66619;SDS011;53484;51.356;6.732;2022-12-18T03:51:59;15.82;;;6.55;;
66619;SDS011;53484;51.356;6.732;2022-12-18T03:54:27;13.60;;;5.85;;
66619;SDS011;53484;51.356;6.732;2022-12-18T03:57:00;12.73;;;5.67;;
66619;SDS011;53484;51.356;6.732;2022-12-18T03:59:28;14.48;;;5.15;;
66619;SDS011;53484;51.356;6.732;2022-12-18T04:01:55;14.57;;;6.13;;
66619;SDS011;53484;51.356;6.732;2022-12-18T04:04:23;12.45;;;5.32;;
66619;SDS011;53484;51.356;6.732;2022-12-18T04:06:52;15.60;;;6.35;;
66619;SDS011;53484;51.356;6.732;2022-12-18T04:09:18;15.73;;;6.10;;
66619;SDS011;53484;51.356;6.732;2022-12-18T04:11:45;15.82;;;6.35;;
66619;SDS011;53484;51.356;6.732;2022-12-18T04:14:12;13.37;;;5.10;;
66619;SDS011;53484;51.356;6.732;2022-12-18T04:16:38;13.68;;;6.32;;
66619;SDS011;53484;51.356;6.732;2022-12-18T04:19:04;13.30;;;5.40;;
66619;SDS011;53484;51.356;6.732;2022-12-18T04:21:30;14.43;;;5.80;;
66619;SDS011;53484;51.356;6.732;2022-12-18T04:23:58;14.25;;;5.97;;
66619;SDS011;53484;51.356;6.732;2022-12-18T04:26:24;11.98;;;5.50;;
66619;SDS011;53484;51.356;6.732;2022-12-18T04:28:51;13.40;;;5.63;;
66619;SDS011;53484;51.356;6.732;2022-12-18T04:31:17;13.27;;;6.10;;
66619;SDS011;53484;51.356;6.732;2022-12-18T04:33:43;10.98;;;5.13;;
66619;SDS011;53484;51.356;6.732;2022-12-18T04:36:09;12.85;;;5.47;;
66619;SDS011;53484;51.356;6.732;2022-12-18T04:38:37;14.60;;;5.37;;
66619;SDS011;53484;51.356;6.732;2022-12-18T04:41:05;12.82;;;5.60;;
66619;SDS011;53484;51.356;6.732;2022-12-18T04:43:31;14.30;;;5.60;;
66619;SDS011;53484;51.356;6.732;2022-12-18T04:46:01;12.77;;;5.50;;
66619;SDS011;53484;51.356;6.732;2022-12-18T04:48:27;10.85;;;5.20;;
66619;SDS011;53484;51.356;6.732;2022-12-18T04:50:53;13.27;;;5.40;;
66619;SDS011;53484;51.356;6.732;2022-12-18T04:53:20;12.10;;;5.30;;
66619;SDS011;53484;51.356;6.732;2022-12-18T04:55:46;13.77;;;5.28;;
66619;SDS011;53484;51.356;6.732;2022-12-18T04:58:15;16.05;;;5.13;;
66619;SDS011;53484;51.356;6.732;2022-12-18T05:00:41;14.00;;;5.75;;
66619;SDS011;53484;51.356;6.732;2022-12-18T05:03:07;14.57;;;5.30;;
66619;SDS011;53484;51.356;6.732;2022-12-18T05:05:34;13.18;;;5.40;;
66619;SDS011;53484;51.356;6.732;2022-12-18T05:08:00;12.45;;;5.88;;
66619;SDS011;53484;51.356;6.732;2022-12-18T05:10:26;14.13;;;5.37;;
66619;SDS011;53484;51.356;6.732;2022-12-18T05:12:53;14.52;;;5.75;;
66619;SDS011;53484;51.356;6.732;2022-12-18T05:15:30;14.68;;;5.50;;
66619;SDS011;53484;51.356;6.732;2022-12-18T05:17:56;11.38;;;5.07;;
66619;SDS011;53484;51.356;6.732;2022-12-18T05:20:23;13.77;;;5.32;;
66619;SDS011;53484;51.356;6.732;2022-12-18T05:22:50;14.25;;;5.95;;
66619;SDS011;53484;51.356;6.732;2022-12-18T05:25:16;11.90;;;5.00;;
66619;SDS011;53484;51.356;6.732;2022-12-18T05:27:43;11.23;;;4.83;;
66619;SDS011;53484;51.356;6.732;2022-12-18T05:30:10;13.43;;;5.70;;
66619;SDS011;53484;51.356;6.732;2022-12-18T05:32:38;12.45;;;4.70;;
66619;SDS011;53484;51.356;6.732;2022-12-18T05:35:06;12.13;;;5.10;;
66619;SDS011;53484;51.356;6.732;2022-12-18T05:37:32;10.48;;;4.90;;
66619;SDS011;53484;51.356;6.732;2022-12-18T05:39:59;12.88;;;5.05;;
66619;SDS011;53484;51.356;6.732;2022-12-18T05:42:25;11.63;;;4.88;;
66619;SDS011;53484;51.356;6.732;2022-12-18T05:44:51;13.25;;;5.38;;
66619;SDS011;53484;51.356;6.732;2022-12-18T05:47:18;13.23;;;5.07;;
66619;SDS011;53484;51.356;6.732;2022-12-18T05:49:45;11.90;;;5.22;;
66619;SDS011;53484;51.356;6.732;2022-12-18T05:52:12;14.03;;;5.07;;
66619;SDS011;53484;51.356;6.732;2022-12-18T05:54:38;14.13;;;4.90;;
66619;SDS011;53484;51.356;6.732;2022-12-18T05:57:05;14.10;;;5.28;;
66619;SDS011;53484;51.356;6.732;2022-12-18T05:59:31;14.57;;;5.30;;
66619;SDS011;53484;51.356;6.732;2022-12-18T06:01:58;10.38;;;4.57;;
66619;SDS011;53484;51.356;6.732;2022-12-18T06:04:26;12.40;;;5.07;;
66619;SDS011;53484;51.356;6.732;2022-12-18T06:06:53;10.90;;;4.57;;
66619;SDS011;53484;51.356;6.732;2022-12-18T06:09:20;13.05;;;5.18;;
66619;SDS011;53484;51.356;6.732;2022-12-18T06:11:46;13.07;;;5.20;;
66619;SDS011;53484;51.356;6.732;2022-12-18T06:14:12;10.70;;;5.28;;
66619;SDS011;53484;51.356;6.732;2022-12-18T06:16:38;12.00;;;4.60;;
66619;SDS011;53484;51.356;6.732;2022-12-18T06:19:05;10.45;;;4.95;;
66619;SDS011;53484;51.356;6.732;2022-12-18T06:21:32;11.38;;;4.85;;
66619;SDS011;53484;51.356;6.732;2022-12-18T06:23:59;12.37;;;4.90;;
66619;SDS011;53484;51.356;6.732;2022-12-18T06:26:26;11.20;;;4.30;;
66619;SDS011;53484;51.356;6.732;2022-12-18T06:28:52;11.77;;;4.50;;
66619;SDS011;53484;51.356;6.732;2022-12-18T06:31:18;11.25;;;5.18;;
66619;SDS011;53484;51.356;6.732;2022-12-18T06:33:45;10.98;;;4.97;;
66619;SDS011;53484;51.356;6.732;2022-12-18T06:36:11;10.38;;;4.43;;
66619;SDS011;53484;51.356;6.732;2022-12-18T06:38:40;13.00;;;4.85;;
66619;SDS011;53484;51.356;6.732;2022-12-18T06:41:09;12.00;;;4.80;;
66619;SDS011;53484;51.356;6.732;2022-12-18T06:43:35;14.30;;;5.05;;
66619;SDS011;53484;51.356;6.732;2022-12-18T06:46:02;12.73;;;4.88;;
66619;SDS011;53484;51.356;6.732;2022-12-18T06:48:29;12.30;;;4.97;;
66619;SDS011;53484;51.356;6.732;2022-12-18T06:50:55;12.55;;;4.93;;
66619;SDS011;53484;51.356;6.732;2022-12-18T06:53:22;12.80;;;5.88;;
66619;SDS011;53484;51.356;6.732;2022-12-18T06:55:49;13.20;;;5.03;;
66619;SDS011;53484;51.356;6.732;2022-12-18T06:58:16;13.73;;;5.18;;
66619;SDS011;53484;51.356;6.732;2022-12-18T07:00:43;13.23;;;5.38;;
66619;SDS011;53484;51.356;6.732;2022-12-18T07:03:10;14.20;;;5.25;;
66619;SDS011;53484;51.356;6.732;2022-12-18T07:05:39;15.63;;;5.43;;
66619;SDS011;53484;51.356;6.732;2022-12-18T07:08:05;12.93;;;5.22;;
66619;SDS011;53484;51.356;6.732;2022-12-18T07:10:31;15.68;;;5.35;;
66619;SDS011;53484;51.356;6.732;2022-12-18T07:12:57;11.17;;;5.00;;
66619;SDS011;53484;51.356;6.732;2022-12-18T07:15:25;14.27;;;5.65;;
66619;SDS011;53484;51.356;6.732;2022-12-18T07:17:51;13.43;;;6.45;;
66619;SDS011;53484;51.356;6.732;2022-12-18T07:20:18;13.43;;;5.57;;
66619;SDS011;53484;51.356;6.732;2022-12-18T07:22:44;13.45;;;5.55;;
66619;SDS011;53484;51.356;6.732;2022-12-18T07:25:13;14.15;;;5.50;;
66619;SDS011;53484;51.356;6.732;2022-12-18T07:27:40;13.05;;;5.28;;
66619;SDS011;53484;51.356;6.732;2022-12-18T07:30:06;12.33;;;5.03;;
66619;SDS011;53484;51.356;6.732;2022-12-18T07:32:35;11.75;;;5.43;;
66619;SDS011;53484;51.356;6.732;2022-12-18T07:35:01;17.35;;;5.85;;
66619;SDS011;53484;51.356;6.732;2022-12-18T07:37:27;13.70;;;5.60;;
66619;SDS011;53484;51.356;6.732;2022-12-18T07:39:54;14.77;;;7.47;;
66619;SDS011;53484;51.356;6.732;2022-12-18T07:42:20;14.93;;;7.50;;
66619;SDS011;53484;51.356;6.732;2022-12-18T07:44:58;11.80;;;5.38;;
66619;SDS011;53484;51.356;6.732;2022-12-18T07:47:25;13.02;;;5.20;;
66619;SDS011;53484;51.356;6.732;2022-12-18T07:49:52;14.45;;;6.22;;
66619;SDS011;53484;51.356;6.732;2022-12-18T07:52:19;11.95;;;5.20;;
66619;SDS011;53484;51.356;6.732;2022-12-18T07:54:45;12.43;;;5.70;;
66619;SDS011;53484;51.356;6.732;2022-12-18T07:57:13;14.25;;;6.15;;
66619;SDS011;53484;51.356;6.732;2022-12-18T07:59:40;12.48;;;5.70;;
66619;SDS011;53484;51.356;6.732;2022-12-18T08:02:06;13.70;;;5.87;;
66619;SDS011;53484;51.356;6.732;2022-12-18T08:04:32;13.50;;;6.40;;
66619;SDS011;53484;51.356;6.732;2022-12-18T08:07:00;12.88;;;5.93;;
66619;SDS011;53484;51.356;6.732;2022-12-18T08:09:26;13.15;;;5.70;;
66619;SDS011;53484;51.356;6.732;2022-12-18T08:11:53;12.85;;;5.53;;
66619;SDS011;53484;51.356;6.732;2022-12-18T08:14:19;11.25;;;5.80;;
66619;SDS011;53484;51.356;6.732;2022-12-18T08:16:46;15.55;;;6.20;;
66619;SDS011;53484;51.356;6.732;2022-12-18T08:19:12;13.67;;;5.90;;
66619;SDS011;53484;51.356;6.732;2022-12-18T08:21:38;12.90;;;5.90;;
66619;SDS011;53484;51.356;6.732;2022-12-18T08:24:06;15.13;;;5.97;;
66619;SDS011;53484;51.356;6.732;2022-12-18T08:26:33;15.83;;;6.27;;
66619;SDS011;53484;51.356;6.732;2022-12-18T08:28:59;15.02;;;7.00;;
66619;SDS011;53484;51.356;6.732;2022-12-18T08:31:26;14.15;;;6.40;;
66619;SDS011;53484;51.356;6.732;2022-12-18T08:33:52;12.93;;;6.00;;
66619;SDS011;53484;51.356;6.732;2022-12-18T08:36:19;14.70;;;6.75;;
66619;SDS011;53484;51.356;6.732;2022-12-18T08:38:46;16.67;;;8.10;;
66619;SDS011;53484;51.356;6.732;2022-12-18T08:41:15;17.50;;;7.68;;
66619;SDS011;53484;51.356;6.732;2022-12-18T08:43:41;16.57;;;8.37;;
66619;SDS011;53484;51.356;6.732;2022-12-18T08:46:26;15.88;;;8.75;;
66619;SDS011;53484;51.356;6.732;2022-12-18T08:48:53;15.65;;;7.05;;
66619;SDS011;53484;51.356;6.732;2022-12-18T08:51:20;14.10;;;7.23;;
66619;SDS011;53484;51.356;6.732;2022-12-18T08:53:46;14.85;;;6.43;;
66619;SDS011;53484;51.356;6.732;2022-12-18T08:56:14;15.50;;;7.38;;
66619;SDS011;53484;51.356;6.732;2022-12-18T08:58:41;18.02;;;6.57;;
66619;SDS011;53484;51.356;6.732;2022-12-18T09:01:08;17.08;;;6.60;;
66619;SDS011;53484;51.356;6.732;2022-12-18T09:03:35;11.95;;;5.80;;
66619;SDS011;53484;51.356;6.732;2022-12-18T09:06:01;13.70;;;6.25;;
66619;SDS011;53484;51.356;6.732;2022-12-18T09:08:27;15.77;;;6.17;;
66619;SDS011;53484;51.356;6.732;2022-12-18T09:10:54;14.75;;;6.28;;
66619;SDS011;53484;51.356;6.732;2022-12-18T09:13:22;19.33;;;6.90;;
66619;SDS011;53484;51.356;6.732;2022-12-18T09:15:49;16.83;;;6.45;;
66619;SDS011;53484;51.356;6.732;2022-12-18T09:18:17;16.40;;;7.97;;
66619;SDS011;53484;51.356;6.732;2022-12-18T09:20:43;15.63;;;7.00;;
66619;SDS011;53484;51.356;6.732;2022-12-18T09:23:10;15.90;;;7.35;;
66619;SDS011;53484;51.356;6.732;2022-12-18T09:25:36;16.57;;;6.83;;
66619;SDS011;53484;51.356;6.732;2022-12-18T09:28:04;13.65;;;6.35;;
66619;SDS011;53484;51.356;6.732;2022-12-18T09:30:32;16.40;;;7.05;;
66619;SDS011;53484;51.356;6.732;2022-12-18T09:32:59;12.88;;;6.15;;
66619;SDS011;53484;51.356;6.732;2022-12-18T09:35:25;14.20;;;6.93;;
66619;SDS011;53484;51.356;6.732;2022-12-18T09:37:52;15.20;;;7.10;;
66619;SDS011;53484;51.356;6.732;2022-12-18T09:40:19;14.40;;;6.85;;
66619;SDS011;53484;51.356;6.732;2022-12-18T09:42:48;14.53;;;6.23;;
66619;SDS011;53484;51.356;6.732;2022-12-18T09:45:16;13.60;;;6.20;;
66619;SDS011;53484;51.356;6.732;2022-12-18T09:47:45;16.00;;;7.07;;
66619;SDS011;53484;51.356;6.732;2022-12-18T09:50:16;14.95;;;6.28;;
66619;SDS011;53484;51.356;6.732;2022-12-18T09:52:49;14.37;;;7.57;;
66619;SDS011;53484;51.356;6.732;2022-12-18T09:55:20;15.63;;;6.40;;
66619;SDS011;53484;51.356;6.732;2022-12-18T09:57:49;15.00;;;6.70;;
66619;SDS011;53484;51.356;6.732;2022-12-18T10:00:18;13.18;;;6.15;;
66619;SDS011;53484;51.356;6.732;2022-12-18T10:02:46;14.68;;;6.63;;
66619;SDS011;53484;51.356;6.732;2022-12-18T10:05:14;17.75;;;7.68;;
66619;SDS011;53484;51.356;6.732;2022-12-18T10:07:47;15.77;;;6.03;;
66619;SDS011;53484;51.356;6.732;2022-12-18T10:10:19;17.02;;;7.53;;
66619;SDS011;53484;51.356;6.732;2022-12-18T10:12:49;15.48;;;7.07;;
66619;SDS011;53484;51.356;6.732;2022-12-18T10:15:19;18.42;;;7.05;;
66619;SDS011;53484;51.356;6.732;2022-12-18T10:17:50;14.57;;;6.95;;
66619;SDS011;53484;51.356;6.732;2022-12-18T10:20:19;16.77;;;7.20;;
66619;SDS011;53484;51.356;6.732;2022-12-18T10:22:49;16.38;;;6.65;;
66619;SDS011;53484;51.356;6.732;2022-12-18T10:25:19;13.63;;;6.25;;
66619;SDS011;53484;51.356;6.732;2022-12-18T10:27:46;17.55;;;6.82;;
66619;SDS011;53484;51.356;6.732;2022-12-18T10:30:13;17.65;;;7.28;;
66619;SDS011;53484;51.356;6.732;2022-12-18T10:32:40;15.88;;;7.22;;
66619;SDS011;53484;51.356;6.732;2022-12-18T10:35:09;15.73;;;6.47;;
66619;SDS011;53484;51.356;6.732;2022-12-18T10:37:39;17.55;;;7.78;;
66619;SDS011;53484;51.356;6.732;2022-12-18T10:40:24;14.73;;;6.22;;
66619;SDS011;53484;51.356;6.732;2022-12-18T10:43:01;17.17;;;6.83;;
66619;SDS011;53484;51.356;6.732;2022-12-18T10:45:29;12.57;;;5.80;;
66619;SDS011;53484;51.356;6.732;2022-12-18T10:47:55;15.63;;;6.20;;
66619;SDS011;53484;51.356;6.732;2022-12-18T10:50:25;14.15;;;6.80;;
66619;SDS011;53484;51.356;6.732;2022-12-18T10:52:53;14.43;;;6.50;;
66619;SDS011;53484;51.356;6.732;2022-12-18T10:55:20;27.35;;;8.82;;
66619;SDS011;53484;51.356;6.732;2022-12-18T10:57:48;14.98;;;6.75;;
66619;SDS011;53484;51.356;6.732;2022-12-18T11:00:22;15.15;;;6.70;;
66619;SDS011;53484;51.356;6.732;2022-12-18T11:02:50;16.67;;;7.28;;
66619;SDS011;53484;51.356;6.732;2022-12-18T11:05:25;16.53;;;7.17;;
66619;SDS011;53484;51.356;6.732;2022-12-18T11:07:52;14.23;;;6.72;;
66619;SDS011;53484;51.356;6.732;2022-12-18T11:10:19;16.02;;;7.32;;
66619;SDS011;53484;51.356;6.732;2022-12-18T11:12:46;15.30;;;6.47;;
66619;SDS011;53484;51.356;6.732;2022-12-18T11:15:16;15.30;;;6.95;;
66619;SDS011;53484;51.356;6.732;2022-12-18T11:17:45;13.93;;;7.00;;
66619;SDS011;53484;51.356;6.732;2022-12-18T11:20:19;15.80;;;7.10;;
66619;SDS011;53484;51.356;6.732;2022-12-18T11:22:55;15.82;;;7.07;;
66619;SDS011;53484;51.356;6.732;2022-12-18T11:25:23;18.52;;;7.63;;
66619;SDS011;53484;51.356;6.732;2022-12-18T11:27:51;14.82;;;6.80;;
66619;SDS011;53484;51.356;6.732;2022-12-18T11:30:21;16.43;;;7.47;;
66619;SDS011;53484;51.356;6.732;2022-12-18T11:32:48;19.55;;;7.88;;
66619;SDS011;53484;51.356;6.732;2022-12-18T11:35:15;16.23;;;7.38;;
66619;SDS011;53484;51.356;6.732;2022-12-18T11:37:44;21.08;;;8.50;;
66619;SDS011;53484;51.356;6.732;2022-12-18T11:40:14;17.45;;;7.68;;
66619;SDS011;53484;51.356;6.732;2022-12-18T11:42:42;19.70;;;7.80;;
66619;SDS011;53484;51.356;6.732;2022-12-18T11:45:21;16.17;;;7.15;;
66619;SDS011;53484;51.356;6.732;2022-12-18T11:47:51;16.02;;;6.68;;
66619;SDS011;53484;51.356;6.732;2022-12-18T11:50:19;15.30;;;6.85;;
66619;SDS011;53484;51.356;6.732;2022-12-18T11:52:47;17.75;;;7.40;;
66619;SDS011;53484;51.356;6.732;2022-12-18T11:55:15;15.37;;;7.57;;
66619;SDS011;53484;51.356;6.732;2022-12-18T11:57:44;15.65;;;7.32;;
66619;SDS011;53484;51.356;6.732;2022-12-18T12:00:15;18.67;;;7.55;;
66619;SDS011;53484;51.356;6.732;2022-12-18T12:02:46;20.48;;;7.68;;
66619;SDS011;53484;51.356;6.732;2022-12-18T12:05:20;17.33;;;7.72;;
66619;SDS011;53484;51.356;6.732;2022-12-18T12:07:52;18.67;;;7.50;;
66619;SDS011;53484;51.356;6.732;2022-12-18T12:10:25;18.67;;;7.45;;
66619;SDS011;53484;51.356;6.732;2022-12-18T12:13:00;18.27;;;7.63;;
66619;SDS011;53484;51.356;6.732;2022-12-18T12:15:32;14.48;;;7.13;;
66619;SDS011;53484;51.356;6.732;2022-12-18T12:18:06;16.95;;;7.78;;
66619;SDS011;53484;51.356;6.732;2022-12-18T12:20:36;17.00;;;7.30;;
66619;SDS011;53484;51.356;6.732;2022-12-18T12:23:05;16.15;;;7.43;;
66619;SDS011;53484;51.356;6.732;2022-12-18T12:25:36;17.13;;;7.32;;
66619;SDS011;53484;51.356;6.732;2022-12-18T12:28:13;17.77;;;7.40;;
66619;SDS011;53484;51.356;6.732;2022-12-18T12:30:48;22.27;;;8.20;;
66619;SDS011;53484;51.356;6.732;2022-12-18T12:33:22;18.97;;;7.80;;
66619;SDS011;53484;51.356;6.732;2022-12-18T12:35:52;17.90;;;7.35;;
66619;SDS011;53484;51.356;6.732;2022-12-18T12:38:21;18.40;;;8.35;;
66619;SDS011;53484;51.356;6.732;2022-12-18T12:40:51;17.90;;;7.70;;
66619;SDS011;53484;51.356;6.732;2022-12-18T12:43:22;18.37;;;7.53;;
66619;SDS011;53484;51.356;6.732;2022-12-18T12:45:50;20.05;;;8.65;;
66619;SDS011;53484;51.356;6.732;2022-12-18T12:48:20;20.45;;;8.45;;
66619;SDS011;53484;51.356;6.732;2022-12-18T12:50:49;17.85;;;8.70;;
66619;SDS011;53484;51.356;6.732;2022-12-18T12:53:19;18.17;;;8.52;;
66619;SDS011;53484;51.356;6.732;2022-12-18T12:55:47;19.40;;;8.73;;
66619;SDS011;53484;51.356;6.732;2022-12-18T12:58:16;20.58;;;7.55;;
66619;SDS011;53484;51.356;6.732;2022-12-18T13:00:46;22.83;;;8.18;;
66619;SDS011;53484;51.356;6.732;2022-12-18T13:03:27;22.13;;;9.13;;
66619;SDS011;53484;51.356;6.732;2022-12-18T13:05:56;19.67;;;8.80;;
66619;SDS011;53484;51.356;6.732;2022-12-18T13:08:25;22.37;;;9.13;;
66619;SDS011;53484;51.356;6.732;2022-12-18T13:10:51;16.92;;;7.93;;
66619;SDS011;53484;51.356;6.732;2022-12-18T13:13:49;22.92;;;9.35;;
66619;SDS011;53484;51.356;6.732;2022-12-18T13:16:17;21.08;;;9.45;;
66619;SDS011;53484;51.356;6.732;2022-12-18T13:18:47;20.67;;;8.63;;
66619;SDS011;53484;51.356;6.732;2022-12-18T13:21:16;20.23;;;9.27;;
66619;SDS011;53484;51.356;6.732;2022-12-18T13:23:46;17.65;;;8.18;;
66619;SDS011;53484;51.356;6.732;2022-12-18T13:26:29;19.05;;;8.60;;
66619;SDS011;53484;51.356;6.732;2022-12-18T13:28:58;20.27;;;9.05;;
66619;SDS011;53484;51.356;6.732;2022-12-18T13:34:12;20.40;;;9.53;;
66619;SDS011;53484;51.356;6.732;2022-12-18T13:36:41;20.80;;;8.35;;
66619;SDS011;53484;51.356;6.732;2022-12-18T13:39:24;22.27;;;9.80;;
66619;SDS011;53484;51.356;6.732;2022-12-18T13:41:51;22.27;;;9.15;;
66619;SDS011;53484;51.356;6.732;2022-12-18T13:44:28;19.98;;;8.88;;
66619;SDS011;53484;51.356;6.732;2022-12-18T13:46:56;20.00;;;8.27;;
66619;SDS011;53484;51.356;6.732;2022-12-18T13:49:24;18.38;;;8.32;;
66619;SDS011;53484;51.356;6.732;2022-12-18T13:51:52;21.33;;;9.63;;
66619;SDS011;53484;51.356;6.732;2022-12-18T13:54:19;18.40;;;8.43;;
66619;SDS011;53484;51.356;6.732;2022-12-18T13:56:48;20.92;;;9.90;;
66619;SDS011;53484;51.356;6.732;2022-12-18T13:59:16;27.67;;;9.67;;
66619;SDS011;53484;51.356;6.732;2022-12-18T14:01:48;21.63;;;9.32;;
66619;SDS011;53484;51.356;6.732;2022-12-18T14:04:21;20.15;;;9.43;;
66619;SDS011;53484;51.356;6.732;2022-12-18T14:06:47;22.35;;;10.05;;
66619;SDS011;53484;51.356;6.732;2022-12-18T14:09:15;20.87;;;9.70;;
66619;SDS011;53484;51.356;6.732;2022-12-18T14:11:45;21.23;;;9.00;;
66619;SDS011;53484;51.356;6.732;2022-12-18T14:14:13;21.58;;;9.88;;
66619;SDS011;53484;51.356;6.732;2022-12-18T14:16:40;19.65;;;8.77;;
66619;SDS011;53484;51.356;6.732;2022-12-18T14:19:09;21.02;;;9.00;;
66619;SDS011;53484;51.356;6.732;2022-12-18T14:21:38;21.77;;;9.73;;
66619;SDS011;53484;51.356;6.732;2022-12-18T14:24:05;23.95;;;9.00;;
66619;SDS011;53484;51.356;6.732;2022-12-18T14:26:32;21.70;;;9.35;;
66619;SDS011;53484;51.356;6.732;2022-12-18T14:28:59;22.42;;;9.93;;
66619;SDS011;53484;51.356;6.732;2022-12-18T14:31:27;24.90;;;10.03;;
66619;SDS011;53484;51.356;6.732;2022-12-18T14:33:53;25.58;;;10.73;;
66619;SDS011;53484;51.356;6.732;2022-12-18T14:36:25;22.58;;;9.73;;
66619;SDS011;53484;51.356;6.732;2022-12-18T14:38:53;25.88;;;10.60;;
66619;SDS011;53484;51.356;6.732;2022-12-18T14:41:20;21.80;;;10.40;;
66619;SDS011;53484;51.356;6.732;2022-12-18T14:43:47;23.13;;;10.10;;
66619;SDS011;53484;51.356;6.732;2022-12-18T14:46:30;25.42;;;10.63;;